Archival Weather

Republic

Farmingdale, New York (KFRG)

Report from: Sunday, January 28, 2024 3:51 PM EST
Current time: Monday, June 17, 2024 2:59 AM EDT

Current weather – Weather history – Daily summaries
Weather forecast

Present weatherMist
Temperature4.0°C (39.2°F)
Wind chill-0.4°C (31.2°F)
Dew point3.0°C (37.4°F)
Winds 12 kts (6.2 m/s, 13.8 mph) Northeast (40°)
Wind gusts 19 kts (9.8 m/s, 21.9 mph)
Visibility2 mi. (3.2 km)
Clouds Ceiling: Broken clouds 900 ft. (274 m)
Overcast 1,300 ft. (396 m)
Altimeter29.64 in.Hg (1004 mB)
Precipitiation0.01 in. (0 mm)
Relative humidity93 %
Density altitude-895 ft. (-273 m)
Remarks Automated weather observing station without precipitation discriminator
Flight conditions Instrument Meteorological Conditions
Raw dataKFRG 282051Z 04012G19KT 2SM BR BKN009 OVC013 04/03 A2964 RMK AO1 P0001
An error has occurred. This application may no longer respond until reloaded. Reload 🗙